sensor_id;sensor_type;location;lat;lon;timestamp;P1;durP1;ratioP1;P2;durP2;ratioP2
11287;SDS011;5700;50.996;7.044;2023-11-21T00:02:20;7.28;;;3.30;;
11287;SDS011;5700;50.996;7.044;2023-11-21T00:05:24;9.25;;;3.55;;
11287;SDS011;5700;50.996;7.044;2023-11-21T00:08:26;9.68;;;3.45;;
11287;SDS011;5700;50.996;7.044;2023-11-21T00:11:28;8.95;;;3.60;;
11287;SDS011;5700;50.996;7.044;2023-11-21T00:14:29;7.88;;;4.07;;
11287;SDS011;5700;50.996;7.044;2023-11-21T00:17:31;8.00;;;3.75;;
11287;SDS011;5700;50.996;7.044;2023-11-21T00:20:34;10.25;;;3.72;;
11287;SDS011;5700;50.996;7.044;2023-11-21T00:23:35;7.78;;;3.67;;
11287;SDS011;5700;50.996;7.044;2023-11-21T00:26:37;8.20;;;3.70;;
11287;SDS011;5700;50.996;7.044;2023-11-21T00:29:39;5.72;;;3.33;;
11287;SDS011;5700;50.996;7.044;2023-11-21T00:32:41;7.82;;;4.00;;
11287;SDS011;5700;50.996;7.044;2023-11-21T00:35:44;8.70;;;3.67;;
11287;SDS011;5700;50.996;7.044;2023-11-21T00:38:46;9.25;;;4.38;;
11287;SDS011;5700;50.996;7.044;2023-11-21T00:41:48;9.00;;;4.20;;
11287;SDS011;5700;50.996;7.044;2023-11-21T00:44:50;7.72;;;4.35;;
11287;SDS011;5700;50.996;7.044;2023-11-21T00:47:51;7.88;;;3.47;;
11287;SDS011;5700;50.996;7.044;2023-11-21T00:50:54;9.98;;;4.55;;
11287;SDS011;5700;50.996;7.044;2023-11-21T00:53:57;9.82;;;4.38;;
11287;SDS011;5700;50.996;7.044;2023-11-21T00:56:58;8.05;;;3.63;;
11287;SDS011;5700;50.996;7.044;2023-11-21T01:00:00;9.38;;;4.30;;
11287;SDS011;5700;50.996;7.044;2023-11-21T01:03:06;6.63;;;3.53;;
11287;SDS011;5700;50.996;7.044;2023-11-21T01:06:10;6.57;;;3.28;;
11287;SDS011;5700;50.996;7.044;2023-11-21T01:09:12;6.97;;;3.55;;
11287;SDS011;5700;50.996;7.044;2023-11-21T01:12:13;7.82;;;3.42;;
11287;SDS011;5700;50.996;7.044;2023-11-21T01:15:15;9.57;;;4.63;;
11287;SDS011;5700;50.996;7.044;2023-11-21T01:18:17;7.10;;;3.63;;
11287;SDS011;5700;50.996;7.044;2023-11-21T01:21:20;8.07;;;3.88;;
11287;SDS011;5700;50.996;7.044;2023-11-21T01:24:22;8.30;;;4.05;;
11287;SDS011;5700;50.996;7.044;2023-11-21T01:27:24;9.25;;;4.38;;
11287;SDS011;5700;50.996;7.044;2023-11-21T01:30:26;9.45;;;4.32;;
11287;SDS011;5700;50.996;7.044;2023-11-21T01:33:28;11.18;;;4.75;;
11287;SDS011;5700;50.996;7.044;2023-11-21T01:36:31;11.18;;;4.43;;
11287;SDS011;5700;50.996;7.044;2023-11-21T01:39:33;11.02;;;3.70;;
11287;SDS011;5700;50.996;7.044;2023-11-21T01:42:35;11.85;;;4.38;;
11287;SDS011;5700;50.996;7.044;2023-11-21T01:45:36;12.90;;;5.28;;
11287;SDS011;5700;50.996;7.044;2023-11-21T01:48:39;9.23;;;4.57;;
11287;SDS011;5700;50.996;7.044;2023-11-21T01:51:43;10.15;;;4.00;;
11287;SDS011;5700;50.996;7.044;2023-11-21T01:54:46;10.27;;;4.80;;
11287;SDS011;5700;50.996;7.044;2023-11-21T01:57:48;11.63;;;4.95;;
11287;SDS011;5700;50.996;7.044;2023-11-21T02:00:49;9.85;;;4.60;;
11287;SDS011;5700;50.996;7.044;2023-11-21T02:03:53;8.98;;;4.82;;
11287;SDS011;5700;50.996;7.044;2023-11-21T02:06:57;10.48;;;4.78;;
11287;SDS011;5700;50.996;7.044;2023-11-21T02:09:58;10.25;;;4.72;;
11287;SDS011;5700;50.996;7.044;2023-11-21T02:13:00;9.15;;;4.60;;
11287;SDS011;5700;50.996;7.044;2023-11-21T02:16:02;7.25;;;4.03;;
11287;SDS011;5700;50.996;7.044;2023-11-21T02:19:06;10.50;;;4.85;;
11287;SDS011;5700;50.996;7.044;2023-11-21T02:22:11;10.10;;;4.63;;
11287;SDS011;5700;50.996;7.044;2023-11-21T02:25:14;10.77;;;4.80;;
11287;SDS011;5700;50.996;7.044;2023-11-21T02:28:17;9.95;;;4.88;;
11287;SDS011;5700;50.996;7.044;2023-11-21T02:31:25;9.98;;;4.57;;
11287;SDS011;5700;50.996;7.044;2023-11-21T02:34:34;8.82;;;4.20;;
11287;SDS011;5700;50.996;7.044;2023-11-21T02:37:35;11.90;;;4.93;;
11287;SDS011;5700;50.996;7.044;2023-11-21T02:40:40;9.05;;;4.35;;
11287;SDS011;5700;50.996;7.044;2023-11-21T02:43:41;12.27;;;4.55;;
11287;SDS011;5700;50.996;7.044;2023-11-21T02:46:43;11.98;;;5.10;;
11287;SDS011;5700;50.996;7.044;2023-11-21T02:49:45;12.25;;;5.22;;
11287;SDS011;5700;50.996;7.044;2023-11-21T02:52:46;12.20;;;5.15;;
11287;SDS011;5700;50.996;7.044;2023-11-21T02:55:50;9.30;;;4.82;;
11287;SDS011;5700;50.996;7.044;2023-11-21T02:58:52;10.35;;;5.20;;
11287;SDS011;5700;50.996;7.044;2023-11-21T03:01:54;12.95;;;5.45;;
11287;SDS011;5700;50.996;7.044;2023-11-21T03:04:57;12.43;;;5.75;;
11287;SDS011;5700;50.996;7.044;2023-11-21T03:07:58;11.50;;;5.03;;
11287;SDS011;5700;50.996;7.044;2023-11-21T03:11:02;10.60;;;4.78;;
11287;SDS011;5700;50.996;7.044;2023-11-21T03:14:04;11.85;;;4.45;;
11287;SDS011;5700;50.996;7.044;2023-11-21T03:17:06;10.65;;;4.90;;
11287;SDS011;5700;50.996;7.044;2023-11-21T03:20:08;11.73;;;5.30;;
11287;SDS011;5700;50.996;7.044;2023-11-21T03:23:13;10.65;;;5.05;;
11287;SDS011;5700;50.996;7.044;2023-11-21T03:26:17;10.73;;;5.68;;
11287;SDS011;5700;50.996;7.044;2023-11-21T03:29:18;12.00;;;5.50;;
11287;SDS011;5700;50.996;7.044;2023-11-21T03:32:20;10.07;;;4.93;;
11287;SDS011;5700;50.996;7.044;2023-11-21T03:35:21;11.07;;;4.88;;
11287;SDS011;5700;50.996;7.044;2023-11-21T03:38:24;9.68;;;4.93;;
11287;SDS011;5700;50.996;7.044;2023-11-21T03:41:27;13.48;;;5.00;;
11287;SDS011;5700;50.996;7.044;2023-11-21T03:44:29;10.73;;;5.55;;
11287;SDS011;5700;50.996;7.044;2023-11-21T03:47:30;8.90;;;4.90;;
11287;SDS011;5700;50.996;7.044;2023-11-21T03:50:32;13.52;;;6.07;;
11287;SDS011;5700;50.996;7.044;2023-11-21T03:53:33;9.70;;;5.38;;
11287;SDS011;5700;50.996;7.044;2023-11-21T03:56:37;11.20;;;5.55;;
11287;SDS011;5700;50.996;7.044;2023-11-21T03:59:39;12.55;;;5.38;;
11287;SDS011;5700;50.996;7.044;2023-11-21T04:02:41;13.50;;;5.88;;
11287;SDS011;5700;50.996;7.044;2023-11-21T04:05:42;11.48;;;5.32;;
11287;SDS011;5700;50.996;7.044;2023-11-21T04:08:46;10.82;;;5.78;;
11287;SDS011;5700;50.996;7.044;2023-11-21T04:11:49;12.48;;;5.57;;
11287;SDS011;5700;50.996;7.044;2023-11-21T04:14:50;12.40;;;5.45;;
11287;SDS011;5700;50.996;7.044;2023-11-21T04:17:52;11.70;;;5.90;;
11287;SDS011;5700;50.996;7.044;2023-11-21T04:20:53;9.77;;;4.63;;
11287;SDS011;5700;50.996;7.044;2023-11-21T04:23:55;10.05;;;5.00;;
11287;SDS011;5700;50.996;7.044;2023-11-21T04:26:58;10.43;;;5.05;;
11287;SDS011;5700;50.996;7.044;2023-11-21T04:30:00;11.38;;;6.10;;
11287;SDS011;5700;50.996;7.044;2023-11-21T04:33:01;10.57;;;4.97;;
11287;SDS011;5700;50.996;7.044;2023-11-21T04:36:03;11.15;;;5.57;;
11287;SDS011;5700;50.996;7.044;2023-11-21T04:39:05;8.98;;;4.82;;
11287;SDS011;5700;50.996;7.044;2023-11-21T04:42:09;9.77;;;5.18;;
11287;SDS011;5700;50.996;7.044;2023-11-21T04:45:11;9.55;;;4.68;;
11287;SDS011;5700;50.996;7.044;2023-11-21T04:48:12;11.35;;;5.38;;
11287;SDS011;5700;50.996;7.044;2023-11-21T04:51:14;10.00;;;5.10;;
11287;SDS011;5700;50.996;7.044;2023-11-21T04:54:16;14.73;;;5.85;;
11287;SDS011;5700;50.996;7.044;2023-11-21T04:57:19;13.45;;;6.43;;
11287;SDS011;5700;50.996;7.044;2023-11-21T05:00:21;14.32;;;5.93;;
11287;SDS011;5700;50.996;7.044;2023-11-21T05:03:24;13.57;;;6.50;;
11287;SDS011;5700;50.996;7.044;2023-11-21T05:06:26;10.10;;;5.65;;
11287;SDS011;5700;50.996;7.044;2023-11-21T05:09:27;10.45;;;5.13;;
11287;SDS011;5700;50.996;7.044;2023-11-21T05:12:33;13.88;;;4.90;;
11287;SDS011;5700;50.996;7.044;2023-11-21T05:15:36;11.43;;;4.82;;
11287;SDS011;5700;50.996;7.044;2023-11-21T05:18:39;10.60;;;5.00;;
11287;SDS011;5700;50.996;7.044;2023-11-21T05:21:40;11.93;;;5.88;;
11287;SDS011;5700;50.996;7.044;2023-11-21T05:24:42;16.98;;;5.80;;
11287;SDS011;5700;50.996;7.044;2023-11-21T05:27:45;11.07;;;5.20;;
11287;SDS011;5700;50.996;7.044;2023-11-21T05:30:47;11.18;;;5.93;;
11287;SDS011;5700;50.996;7.044;2023-11-21T05:33:50;12.15;;;5.70;;
11287;SDS011;5700;50.996;7.044;2023-11-21T05:36:51;11.55;;;5.80;;
11287;SDS011;5700;50.996;7.044;2023-11-21T05:39:53;11.07;;;5.47;;
11287;SDS011;5700;50.996;7.044;2023-11-21T05:42:57;15.13;;;6.43;;
11287;SDS011;5700;50.996;7.044;2023-11-21T05:45:59;19.02;;;5.60;;
11287;SDS011;5700;50.996;7.044;2023-11-21T05:49:01;9.43;;;5.63;;
11287;SDS011;5700;50.996;7.044;2023-11-21T05:52:02;12.88;;;5.53;;
11287;SDS011;5700;50.996;7.044;2023-11-21T05:55:05;16.63;;;5.15;;
11287;SDS011;5700;50.996;7.044;2023-11-21T05:58:09;10.15;;;5.40;;
11287;SDS011;5700;50.996;7.044;2023-11-21T06:01:13;11.60;;;5.65;;
11287;SDS011;5700;50.996;7.044;2023-11-21T06:04:15;11.80;;;5.22;;
11287;SDS011;5700;50.996;7.044;2023-11-21T06:07:18;8.88;;;4.45;;
11287;SDS011;5700;50.996;7.044;2023-11-21T06:10:20;13.38;;;5.45;;
11287;SDS011;5700;50.996;7.044;2023-11-21T06:13:25;14.02;;;5.07;;
11287;SDS011;5700;50.996;7.044;2023-11-21T06:16:26;17.30;;;6.50;;
11287;SDS011;5700;50.996;7.044;2023-11-21T06:19:29;11.85;;;5.13;;
11287;SDS011;5700;50.996;7.044;2023-11-21T06:22:30;10.80;;;5.93;;
11287;SDS011;5700;50.996;7.044;2023-11-21T06:25:32;12.93;;;5.75;;
11287;SDS011;5700;50.996;7.044;2023-11-21T06:28:37;13.95;;;5.32;;
11287;SDS011;5700;50.996;7.044;2023-11-21T06:31:39;13.20;;;5.93;;
11287;SDS011;5700;50.996;7.044;2023-11-21T06:34:41;19.48;;;9.20;;
11287;SDS011;5700;50.996;7.044;2023-11-21T06:37:43;13.75;;;6.00;;
11287;SDS011;5700;50.996;7.044;2023-11-21T06:40:47;13.95;;;6.90;;
11287;SDS011;5700;50.996;7.044;2023-11-21T06:43:51;14.60;;;6.93;;
11287;SDS011;5700;50.996;7.044;2023-11-21T06:46:53;14.93;;;6.20;;
11287;SDS011;5700;50.996;7.044;2023-11-21T06:49:55;14.93;;;6.75;;
11287;SDS011;5700;50.996;7.044;2023-11-21T06:52:56;14.93;;;6.90;;
11287;SDS011;5700;50.996;7.044;2023-11-21T06:55:58;13.13;;;6.90;;
11287;SDS011;5700;50.996;7.044;2023-11-21T06:59:01;17.40;;;7.10;;
11287;SDS011;5700;50.996;7.044;2023-11-21T07:02:05;14.98;;;6.70;;
11287;SDS011;5700;50.996;7.044;2023-11-21T07:05:07;17.70;;;7.70;;
11287;SDS011;5700;50.996;7.044;2023-11-21T07:08:09;17.13;;;6.80;;
11287;SDS011;5700;50.996;7.044;2023-11-21T07:11:11;16.65;;;7.28;;
11287;SDS011;5700;50.996;7.044;2023-11-21T07:14:14;14.45;;;6.95;;
11287;SDS011;5700;50.996;7.044;2023-11-21T07:17:17;13.60;;;7.00;;
11287;SDS011;5700;50.996;7.044;2023-11-21T07:20:19;14.00;;;6.60;;
11287;SDS011;5700;50.996;7.044;2023-11-21T07:23:21;15.23;;;7.10;;
11287;SDS011;5700;50.996;7.044;2023-11-21T07:26:24;13.50;;;6.90;;
11287;SDS011;5700;50.996;7.044;2023-11-21T07:29:27;12.60;;;5.60;;
11287;SDS011;5700;50.996;7.044;2023-11-21T07:32:29;15.30;;;6.38;;
11287;SDS011;5700;50.996;7.044;2023-11-21T07:35:31;12.40;;;6.50;;
11287;SDS011;5700;50.996;7.044;2023-11-21T07:38:33;14.98;;;7.57;;
11287;SDS011;5700;50.996;7.044;2023-11-21T07:41:34;18.23;;;7.07;;
11287;SDS011;5700;50.996;7.044;2023-11-21T07:44:39;17.85;;;7.90;;
11287;SDS011;5700;50.996;7.044;2023-11-21T07:47:41;16.40;;;7.78;;
11287;SDS011;5700;50.996;7.044;2023-11-21T07:50:42;20.45;;;8.63;;
11287;SDS011;5700;50.996;7.044;2023-11-21T07:53:44;16.90;;;7.25;;
11287;SDS011;5700;50.996;7.044;2023-11-21T07:56:46;14.80;;;7.35;;
11287;SDS011;5700;50.996;7.044;2023-11-21T07:59:49;17.63;;;9.13;;
11287;SDS011;5700;50.996;7.044;2023-11-21T08:02:53;21.98;;;8.15;;
11287;SDS011;5700;50.996;7.044;2023-11-21T08:05:55;21.05;;;9.15;;
11287;SDS011;5700;50.996;7.044;2023-11-21T08:08:57;12.63;;;6.65;;
11287;SDS011;5700;50.996;7.044;2023-11-21T08:11:59;18.55;;;7.88;;
11287;SDS011;5700;50.996;7.044;2023-11-21T08:15:04;24.10;;;9.68;;
11287;SDS011;5700;50.996;7.044;2023-11-21T08:18:07;23.25;;;9.15;;
11287;SDS011;5700;50.996;7.044;2023-11-21T08:21:12;22.30;;;8.90;;
11287;SDS011;5700;50.996;7.044;2023-11-21T08:24:13;23.83;;;9.40;;
11287;SDS011;5700;50.996;7.044;2023-11-21T08:27:15;26.85;;;9.73;;
11287;SDS011;5700;50.996;7.044;2023-11-21T08:30:18;23.33;;;9.95;;
11287;SDS011;5700;50.996;7.044;2023-11-21T08:33:23;21.90;;;9.70;;
11287;SDS011;5700;50.996;7.044;2023-11-21T08:36:25;19.45;;;8.35;;
11287;SDS011;5700;50.996;7.044;2023-11-21T08:39:27;19.17;;;8.45;;
11287;SDS011;5700;50.996;7.044;2023-11-21T08:42:28;23.48;;;10.02;;
11287;SDS011;5700;50.996;7.044;2023-11-21T08:45:31;23.20;;;10.18;;
11287;SDS011;5700;50.996;7.044;2023-11-21T08:48:35;25.05;;;10.30;;
11287;SDS011;5700;50.996;7.044;2023-11-21T08:51:36;18.77;;;9.27;;
11287;SDS011;5700;50.996;7.044;2023-11-21T08:54:38;23.10;;;10.38;;
11287;SDS011;5700;50.996;7.044;2023-11-21T08:57:40;16.40;;;8.13;;
11287;SDS011;5700;50.996;7.044;2023-11-21T09:00:43;20.30;;;8.80;;
11287;SDS011;5700;50.996;7.044;2023-11-21T09:03:46;32.38;;;11.15;;
11287;SDS011;5700;50.996;7.044;2023-11-21T09:06:47;24.35;;;9.88;;
11287;SDS011;5700;50.996;7.044;2023-11-21T09:09:49;29.52;;;12.70;;
11287;SDS011;5700;50.996;7.044;2023-11-21T09:12:51;22.40;;;10.75;;
11287;SDS011;5700;50.996;7.044;2023-11-21T09:15:54;27.10;;;10.80;;
11287;SDS011;5700;50.996;7.044;2023-11-21T09:18:55;26.95;;;11.38;;
11287;SDS011;5700;50.996;7.044;2023-11-21T09:21:57;32.00;;;12.63;;
11287;SDS011;5700;50.996;7.044;2023-11-21T09:24:58;27.63;;;12.07;;
11287;SDS011;5700;50.996;7.044;2023-11-21T09:28:00;27.88;;;12.23;;
11287;SDS011;5700;50.996;7.044;2023-11-21T09:31:03;24.88;;;11.10;;
11287;SDS011;5700;50.996;7.044;2023-11-21T09:34:05;29.05;;;11.15;;
11287;SDS011;5700;50.996;7.044;2023-11-21T09:37:07;25.63;;;11.73;;
11287;SDS011;5700;50.996;7.044;2023-11-21T09:40:10;26.33;;;11.45;;
11287;SDS011;5700;50.996;7.044;2023-11-21T09:43:15;32.80;;;13.48;;
11287;SDS011;5700;50.996;7.044;2023-11-21T09:46:19;24.52;;;10.30;;
11287;SDS011;5700;50.996;7.044;2023-11-21T09:49:23;28.23;;;11.35;;
11287;SDS011;5700;50.996;7.044;2023-11-21T09:52:26;28.58;;;11.93;;
11287;SDS011;5700;50.996;7.044;2023-11-21T09:55:28;28.02;;;11.13;;
11287;SDS011;5700;50.996;7.044;2023-11-21T09:58:35;32.92;;;13.93;;
11287;SDS011;5700;50.996;7.044;2023-11-21T10:01:38;26.98;;;11.95;;
11287;SDS011;5700;50.996;7.044;2023-11-21T10:04:42;25.33;;;12.13;;
11287;SDS011;5700;50.996;7.044;2023-11-21T10:07:43;28.88;;;11.82;;
11287;SDS011;5700;50.996;7.044;2023-11-21T10:10:47;38.25;;;15.52;;
11287;SDS011;5700;50.996;7.044;2023-11-21T10:13:51;40.65;;;15.80;;
11287;SDS011;5700;50.996;7.044;2023-11-21T10:16:55;39.50;;;16.48;;
11287;SDS011;5700;50.996;7.044;2023-11-21T10:19:58;36.50;;;15.32;;
11287;SDS011;5700;50.996;7.044;2023-11-21T10:23:00;44.40;;;16.70;;
11287;SDS011;5700;50.996;7.044;2023-11-21T10:26:03;38.67;;;17.17;;
11287;SDS011;5700;50.996;7.044;2023-11-21T10:29:05;39.10;;;16.00;;
11287;SDS011;5700;50.996;7.044;2023-11-21T10:32:08;45.47;;;18.92;;
11287;SDS011;5700;50.996;7.044;2023-11-21T10:35:10;45.35;;;17.58;;
11287;SDS011;5700;50.996;7.044;2023-11-21T10:38:12;44.70;;;17.65;;
11287;SDS011;5700;50.996;7.044;2023-11-21T10:41:14;38.42;;;16.42;;
11287;SDS011;5700;50.996;7.044;2023-11-21T10:44:16;48.92;;;18.85;;
11287;SDS011;5700;50.996;7.044;2023-11-21T10:47:22;42.33;;;17.80;;
11287;SDS011;5700;50.996;7.044;2023-11-21T10:50:23;43.72;;;17.83;;
11287;SDS011;5700;50.996;7.044;2023-11-21T10:53:28;39.40;;;17.10;;
11287;SDS011;5700;50.996;7.044;2023-11-21T10:56:30;42.38;;;17.65;;
11287;SDS011;5700;50.996;7.044;2023-11-21T10:59:35;38.08;;;17.05;;
11287;SDS011;5700;50.996;7.044;2023-11-21T11:02:40;34.42;;;14.90;;
11287;SDS011;5700;50.996;7.044;2023-11-21T11:05:42;34.97;;;15.35;;
11287;SDS011;5700;50.996;7.044;2023-11-21T11:08:51;37.22;;;14.88;;
11287;SDS011;5700;50.996;7.044;2023-11-21T11:11:52;34.95;;;14.63;;
11287;SDS011;5700;50.996;7.044;2023-11-21T11:14:54;33.80;;;13.20;;
11287;SDS011;5700;50.996;7.044;2023-11-21T11:17:57;35.83;;;15.70;;
11287;SDS011;5700;50.996;7.044;2023-11-21T11:21:01;29.48;;;13.73;;
11287;SDS011;5700;50.996;7.044;2023-11-21T11:24:13;31.75;;;13.23;;
11287;SDS011;5700;50.996;7.044;2023-11-21T11:27:24;30.85;;;14.25;;
11287;SDS011;5700;50.996;7.044;2023-11-21T11:30:37;33.13;;;14.52;;
11287;SDS011;5700;50.996;7.044;2023-11-21T11:33:48;34.75;;;13.73;;
11287;SDS011;5700;50.996;7.044;2023-11-21T11:36:54;28.40;;;12.35;;
11287;SDS011;5700;50.996;7.044;2023-11-21T11:39:58;30.52;;;13.57;;
11287;SDS011;5700;50.996;7.044;2023-11-21T11:43:01;29.42;;;13.27;;
11287;SDS011;5700;50.996;7.044;2023-11-21T11:46:04;29.98;;;12.60;;
11287;SDS011;5700;50.996;7.044;2023-11-21T11:49:08;32.50;;;13.60;;
11287;SDS011;5700;50.996;7.044;2023-11-21T11:55:34;41.20;;;14.35;;
11287;SDS011;5700;50.996;7.044;2023-11-21T11:58:37;39.85;;;15.25;;
11287;SDS011;5700;50.996;7.044;2023-11-21T12:01:38;39.20;;;14.52;;
11287;SDS011;5700;50.996;7.044;2023-11-21T12:04:47;34.42;;;14.25;;
11287;SDS011;5700;50.996;7.044;2023-11-21T12:07:50;34.88;;;14.60;;
11287;SDS011;5700;50.996;7.044;2023-11-21T12:10:53;36.00;;;13.63;;
11287;SDS011;5700;50.996;7.044;2023-11-21T12:13:55;35.15;;;13.35;;
11287;SDS011;5700;50.996;7.044;2023-11-21T12:16:56;36.60;;;13.85;;
11287;SDS011;5700;50.996;7.044;2023-11-21T12:20:02;32.95;;;13.40;;
11287;SDS011;5700;50.996;7.044;2023-11-21T12:23:05;38.75;;;14.23;;
11287;SDS011;5700;50.996;7.044;2023-11-21T12:26:08;33.78;;;13.90;;
11287;SDS011;5700;50.996;7.044;2023-11-21T12:29:10;28.15;;;12.70;;
11287;SDS011;5700;50.996;7.044;2023-11-21T12:32:12;34.33;;;13.73;;
11287;SDS011;5700;50.996;7.044;2023-11-21T12:35:17;33.05;;;13.35;;
11287;SDS011;5700;50.996;7.044;2023-11-21T12:38:21;29.13;;;12.73;;
11287;SDS011;5700;50.996;7.044;2023-11-21T12:41:24;32.33;;;12.70;;
11287;SDS011;5700;50.996;7.044;2023-11-21T12:44:26;35.33;;;14.40;;
11287;SDS011;5700;50.996;7.044;2023-11-21T12:47:27;26.85;;;12.45;;
11287;SDS011;5700;50.996;7.044;2023-11-21T12:50:30;31.95;;;12.75;;
11287;SDS011;5700;50.996;7.044;2023-11-21T12:53:33;25.60;;;11.95;;
11287;SDS011;5700;50.996;7.044;2023-11-21T12:56:38;30.48;;;11.85;;
11287;SDS011;5700;50.996;7.044;2023-11-21T12:59:40;25.25;;;11.88;;
11287;SDS011;5700;50.996;7.044;2023-11-21T13:02:42;31.17;;;12.68;;
11287;SDS011;5700;50.996;7.044;2023-11-21T13:05:46;24.23;;;10.60;;
11287;SDS011;5700;50.996;7.044;2023-11-21T13:08:50;31.70;;;12.27;;
11287;SDS011;5700;50.996;7.044;2023-11-21T13:11:55;33.90;;;13.52;;
11287;SDS011;5700;50.996;7.044;2023-11-21T13:15:03;27.50;;;12.82;;
11287;SDS011;5700;50.996;7.044;2023-11-21T13:18:06;27.48;;;12.18;;
11287;SDS011;5700;50.996;7.044;2023-11-21T13:21:12;29.30;;;12.90;;
11287;SDS011;5700;50.996;7.044;2023-11-21T13:24:13;30.42;;;11.77;;
11287;SDS011;5700;50.996;7.044;2023-11-21T13:27:15;27.88;;;12.55;;
11287;SDS011;5700;50.996;7.044;2023-11-21T13:30:16;30.08;;;10.95;;
11287;SDS011;5700;50.996;7.044;2023-11-21T13:33:23;25.25;;;11.40;;
11287;SDS011;5700;50.996;7.044;2023-11-21T13:36:29;27.80;;;11.38;;
11287;SDS011;5700;50.996;7.044;2023-11-21T13:39:32;25.75;;;11.13;;
11287;SDS011;5700;50.996;7.044;2023-11-21T13:42:34;33.38;;;13.57;;
11287;SDS011;5700;50.996;7.044;2023-11-21T13:45:36;28.38;;;11.88;;
11287;SDS011;5700;50.996;7.044;2023-11-21T13:48:39;35.15;;;12.80;;
11287;SDS011;5700;50.996;7.044;2023-11-21T13:51:44;31.90;;;11.90;;
11287;SDS011;5700;50.996;7.044;2023-11-21T13:54:48;30.38;;;11.77;;
11287;SDS011;5700;50.996;7.044;2023-11-21T13:57:50;27.92;;;12.02;;
11287;SDS011;5700;50.996;7.044;2023-11-21T14:00:52;29.83;;;11.63;;
11287;SDS011;5700;50.996;7.044;2023-11-21T14:03:57;30.15;;;10.85;;
11287;SDS011;5700;50.996;7.044;2023-11-21T14:07:09;25.83;;;10.77;;
11287;SDS011;5700;50.996;7.044;2023-11-21T14:10:22;29.48;;;11.50;;
11287;SDS011;5700;50.996;7.044;2023-11-21T14:13:26;26.70;;;11.13;;
11287;SDS011;5700;50.996;7.044;2023-11-21T14:16:27;26.50;;;10.55;;
11287;SDS011;5700;50.996;7.044;2023-11-21T14:19:28;32.20;;;11.23;;
11287;SDS011;5700;50.996;7.044;2023-11-21T14:22:34;34.65;;;11.57;;
11287;SDS011;5700;50.996;7.044;2023-11-21T14:25:36;28.50;;;11.35;;
11287;SDS011;5700;50.996;7.044;2023-11-21T14:28:39;29.77;;;10.63;;
11287;SDS011;5700;50.996;7.044;2023-11-21T14:31:41;30.30;;;12.77;;
11287;SDS011;5700;50.996;7.044;2023-11-21T14:34:46;28.00;;;11.10;;
11287;SDS011;5700;50.996;7.044;2023-11-21T14:37:49;29.73;;;11.80;;
11287;SDS011;5700;50.996;7.044;2023-11-21T14:40:51;33.70;;;12.15;;
11287;SDS011;5700;50.996;7.044;2023-11-21T14:43:53;34.13;;;11.43;;
11287;SDS011;5700;50.996;7.044;2023-11-21T14:46:55;30.40;;;12.13;;
11287;SDS011;5700;50.996;7.044;2023-11-21T14:49:58;27.23;;;11.80;;
11287;SDS011;5700;50.996;7.044;2023-11-21T14:53:07;29.10;;;12.30;;
11287;SDS011;5700;50.996;7.044;2023-11-21T14:56:09;32.03;;;12.98;;
11287;SDS011;5700;50.996;7.044;2023-11-21T14:59:21;35.40;;;12.50;;
11287;SDS011;5700;50.996;7.044;2023-11-21T15:02:22;27.33;;;11.55;;
11287;SDS011;5700;50.996;7.044;2023-11-21T15:05:43;30.50;;;12.45;;
11287;SDS011;5700;50.996;7.044;2023-11-21T15:08:48;30.08;;;12.73;;
11287;SDS011;5700;50.996;7.044;2023-11-21T15:11:53;33.97;;;12.35;;
11287;SDS011;5700;50.996;7.044;2023-11-21T15:15:00;30.27;;;11.98;;
11287;SDS011;5700;50.996;7.044;2023-11-21T15:18:03;33.63;;;13.57;;
11287;SDS011;5700;50.996;7.044;2023-11-21T15:21:06;42.15;;;13.65;;
11287;SDS011;5700;50.996;7.044;2023-11-21T15:24:13;28.10;;;11.02;;
11287;SDS011;5700;50.996;7.044;2023-11-21T15:27:15;27.92;;;11.70;;
11287;SDS011;5700;50.996;7.044;2023-11-21T15:30:17;32.78;;;13.10;;
11287;SDS011;5700;50.996;7.044;2023-11-21T15:33:21;35.58;;;12.98;;
11287;SDS011;5700;50.996;7.044;2023-11-21T15:36:23;29.90;;;12.43;;
11287;SDS011;5700;50.996;7.044;2023-11-21T15:39:26;33.03;;;13.10;;
11287;SDS011;5700;50.996;7.044;2023-11-21T15:42:30;27.80;;;11.40;;
11287;SDS011;5700;50.996;7.044;2023-11-21T15:45:31;40.33;;;12.60;;
11287;SDS011;5700;50.996;7.044;2023-11-21T15:48:33;37.00;;;14.48;;
11287;SDS011;5700;50.996;7.044;2023-11-21T15:51:35;26.33;;;11.40;;
11287;SDS011;5700;50.996;7.044;2023-11-21T15:54:40;27.15;;;11.68;;
11287;SDS011;5700;50.996;7.044;2023-11-21T15:57:42;25.23;;;9.95;;
11287;SDS011;5700;50.996;7.044;2023-11-21T16:00:43;27.20;;;10.70;;
11287;SDS011;5700;50.996;7.044;2023-11-21T16:03:44;20.63;;;8.63;;
11287;SDS011;5700;50.996;7.044;2023-11-21T16:06:48;21.13;;;9.38;;
11287;SDS011;5700;50.996;7.044;2023-11-21T16:09:51;18.75;;;8.93;;
11287;SDS011;5700;50.996;7.044;2023-11-21T16:12:52;15.82;;;7.78;;
11287;SDS011;5700;50.996;7.044;2023-11-21T16:15:54;16.35;;;8.75;;
11287;SDS011;5700;50.996;7.044;2023-11-21T16:18:55;15.70;;;8.23;;
11287;SDS011;5700;50.996;7.044;2023-11-21T16:21:57;18.85;;;8.45;;
11287;SDS011;5700;50.996;7.044;2023-11-21T16:25:00;15.50;;;7.40;;
11287;SDS011;5700;50.996;7.044;2023-11-21T16:28:04;16.45;;;7.78;;
11287;SDS011;5700;50.996;7.044;2023-11-21T16:31:05;13.02;;;7.22;;
11287;SDS011;5700;50.996;7.044;2023-11-21T16:34:11;12.30;;;6.70;;
11287;SDS011;5700;50.996;7.044;2023-11-21T16:37:13;17.63;;;7.60;;
11287;SDS011;5700;50.996;7.044;2023-11-21T16:40:17;14.07;;;7.05;;
11287;SDS011;5700;50.996;7.044;2023-11-21T16:43:19;14.90;;;7.55;;
11287;SDS011;5700;50.996;7.044;2023-11-21T16:46:20;16.15;;;7.80;;
11287;SDS011;5700;50.996;7.044;2023-11-21T16:49:21;16.90;;;7.82;;
11287;SDS011;5700;50.996;7.044;2023-11-21T16:52:23;14.15;;;7.43;;
11287;SDS011;5700;50.996;7.044;2023-11-21T16:55:26;19.20;;;8.82;;
11287;SDS011;5700;50.996;7.044;2023-11-21T16:58:27;15.57;;;7.32;;
11287;SDS011;5700;50.996;7.044;2023-11-21T17:01:29;19.17;;;8.27;;
11287;SDS011;5700;50.996;7.044;2023-11-21T17:04:30;13.65;;;6.97;;
11287;SDS011;5700;50.996;7.044;2023-11-21T17:07:34;15.73;;;7.72;;
11287;SDS011;5700;50.996;7.044;2023-11-21T17:10:36;14.52;;;7.43;;
11287;SDS011;5700;50.996;7.044;2023-11-21T17:13:38;17.70;;;7.57;;
11287;SDS011;5700;50.996;7.044;2023-11-21T17:16:40;15.95;;;7.18;;
11287;SDS011;5700;50.996;7.044;2023-11-21T17:19:42;15.65;;;8.65;;
11287;SDS011;5700;50.996;7.044;2023-11-21T17:22:44;14.18;;;8.07;;
11287;SDS011;5700;50.996;7.044;2023-11-21T17:25:47;13.50;;;7.13;;
11287;SDS011;5700;50.996;7.044;2023-11-21T17:28:48;13.20;;;7.18;;
11287;SDS011;5700;50.996;7.044;2023-11-21T17:31:50;11.07;;;5.55;;
11287;SDS011;5700;50.996;7.044;2023-11-21T17:34:51;12.88;;;5.80;;
11287;SDS011;5700;50.996;7.044;2023-11-21T17:37:53;12.40;;;6.03;;
11287;SDS011;5700;50.996;7.044;2023-11-21T17:40:56;12.10;;;6.00;;
11287;SDS011;5700;50.996;7.044;2023-11-21T17:43:58;9.73;;;4.78;;
11287;SDS011;5700;50.996;7.044;2023-11-21T17:47:01;9.40;;;4.75;;
11287;SDS011;5700;50.996;7.044;2023-11-21T17:50:03;9.88;;;5.63;;
11287;SDS011;5700;50.996;7.044;2023-11-21T17:53:05;8.68;;;4.72;;
11287;SDS011;5700;50.996;7.044;2023-11-21T17:56:09;10.10;;;5.50;;
11287;SDS011;5700;50.996;7.044;2023-11-21T17:59:15;13.43;;;5.70;;
11287;SDS011;5700;50.996;7.044;2023-11-21T18:02:17;10.82;;;5.55;;
11287;SDS011;5700;50.996;7.044;2023-11-21T18:05:19;11.80;;;5.90;;
11287;SDS011;5700;50.996;7.044;2023-11-21T18:08:22;10.48;;;5.53;;
11287;SDS011;5700;50.996;7.044;2023-11-21T18:11:26;14.95;;;6.03;;
11287;SDS011;5700;50.996;7.044;2023-11-21T18:14:27;15.15;;;5.70;;
11287;SDS011;5700;50.996;7.044;2023-11-21T18:17:29;10.52;;;5.70;;
11287;SDS011;5700;50.996;7.044;2023-11-21T18:20:31;10.00;;;5.18;;
11287;SDS011;5700;50.996;7.044;2023-11-21T18:23:32;9.02;;;4.65;;